sensor_id;sensor_type;location;lat;lon;timestamp;P1;durP1;ratioP1;P2;durP2;ratioP2
65092;SDS011;52025;50.288;2.794;2022-08-19T04:32:56;2.00;;;1.10;;
65092;SDS011;52025;50.288;2.794;2022-08-19T04:35:21;2.13;;;1.10;;
65092;SDS011;52025;50.288;2.794;2022-08-19T04:37:47;2.15;;;1.30;;
65092;SDS011;52025;50.288;2.794;2022-08-19T04:40:12;1.85;;;1.23;;
65092;SDS011;52025;50.288;2.794;2022-08-19T04:45:21;1.40;;;0.77;;
65092;SDS011;52025;50.288;2.794;2022-08-19T04:47:47;1.70;;;1.00;;
65092;SDS011;52025;50.288;2.794;2022-08-19T04:50:12;1.67;;;1.08;;
65092;SDS011;52025;50.288;2.794;2022-08-19T04:52:38;1.83;;;1.13;;
65092;SDS011;52025;50.288;2.794;2022-08-19T04:55:07;1.40;;;0.90;;
65092;SDS011;52025;50.288;2.794;2022-08-19T04:57:32;1.95;;;1.10;;
65092;SDS011;52025;50.288;2.794;2022-08-19T04:59:58;2.00;;;1.15;;
65092;SDS011;52025;50.288;2.794;2022-08-19T05:02:23;1.90;;;1.10;;
65092;SDS011;52025;50.288;2.794;2022-08-19T05:04:50;1.10;;;0.77;;
65092;SDS011;52025;50.288;2.794;2022-08-19T05:07:15;1.02;;;0.73;;
65092;SDS011;52025;50.288;2.794;2022-08-19T05:09:41;1.17;;;0.77;;
65092;SDS011;52025;50.288;2.794;2022-08-19T05:12:06;1.87;;;1.00;;
65092;SDS011;52025;50.288;2.794;2022-08-19T05:14:31;1.15;;;0.77;;
65092;SDS011;52025;50.288;2.794;2022-08-19T05:16:56;1.38;;;1.00;;
65092;SDS011;52025;50.288;2.794;2022-08-19T05:19:22;1.35;;;0.75;;
65092;SDS011;52025;50.288;2.794;2022-08-19T05:22:06;1.38;;;0.90;;
65092;SDS011;52025;50.288;2.794;2022-08-19T05:27:15;0.45;;;0.43;;
65092;SDS011;52025;50.288;2.794;2022-08-19T05:29:40;1.23;;;0.80;;
65092;SDS011;52025;50.288;2.794;2022-08-19T05:32:05;1.48;;;0.90;;
65092;SDS011;52025;50.288;2.794;2022-08-19T05:34:36;1.67;;;0.93;;
65092;SDS011;52025;50.288;2.794;2022-08-19T05:37:05;1.90;;;0.95;;
65092;SDS011;52025;50.288;2.794;2022-08-19T05:39:34;0.93;;;0.65;;
65092;SDS011;52025;50.288;2.794;2022-08-19T05:42:08;1.20;;;0.70;;
65092;SDS011;52025;50.288;2.794;2022-08-19T05:44:34;1.35;;;0.88;;
65092;SDS011;52025;50.288;2.794;2022-08-19T05:47:02;0.70;;;0.70;;
65092;SDS011;52025;50.288;2.794;2022-08-19T05:49:28;0.73;;;0.65;;
65092;SDS011;52025;50.288;2.794;2022-08-19T05:51:53;1.67;;;0.90;;
65092;SDS011;52025;50.288;2.794;2022-08-19T05:54:20;1.38;;;0.77;;
65092;SDS011;52025;50.288;2.794;2022-08-19T05:56:46;0.85;;;0.68;;
65092;SDS011;52025;50.288;2.794;2022-08-19T05:59:13;1.48;;;0.85;;
65092;SDS011;52025;50.288;2.794;2022-08-19T06:01:39;1.27;;;0.63;;
65092;SDS011;52025;50.288;2.794;2022-08-19T06:04:04;2.17;;;0.77;;
65092;SDS011;52025;50.288;2.794;2022-08-19T06:06:30;1.17;;;0.70;;
65092;SDS011;52025;50.288;2.794;2022-08-19T06:08:55;0.88;;;0.57;;
65092;SDS011;52025;50.288;2.794;2022-08-19T06:11:28;1.25;;;0.70;;
65092;SDS011;52025;50.288;2.794;2022-08-19T06:13:57;0.52;;;0.40;;
65092;SDS011;52025;50.288;2.794;2022-08-19T06:16:24;1.63;;;0.63;;
65092;SDS011;52025;50.288;2.794;2022-08-19T06:18:50;0.88;;;0.60;;
65092;SDS011;52025;50.288;2.794;2022-08-19T06:21:16;2.05;;;0.80;;
65092;SDS011;52025;50.288;2.794;2022-08-19T06:23:42;0.70;;;0.60;;
65092;SDS011;52025;50.288;2.794;2022-08-19T06:26:11;1.35;;;0.68;;
65092;SDS011;52025;50.288;2.794;2022-08-19T06:28:36;0.77;;;0.60;;
65092;SDS011;52025;50.288;2.794;2022-08-19T06:31:05;1.05;;;0.57;;
65092;SDS011;52025;50.288;2.794;2022-08-19T06:33:30;0.98;;;0.65;;
65092;SDS011;52025;50.288;2.794;2022-08-19T06:35:56;0.93;;;0.60;;
65092;SDS011;52025;50.288;2.794;2022-08-19T06:38:21;1.10;;;0.50;;
65092;SDS011;52025;50.288;2.794;2022-08-19T06:40:48;0.30;;;0.30;;
65092;SDS011;52025;50.288;2.794;2022-08-19T06:43:13;0.40;;;0.40;;
65092;SDS011;52025;50.288;2.794;2022-08-19T06:45:40;0.60;;;0.50;;
65092;SDS011;52025;50.288;2.794;2022-08-19T06:48:06;0.50;;;0.50;;
65092;SDS011;52025;50.288;2.794;2022-08-19T06:50:31;1.08;;;0.57;;
65092;SDS011;52025;50.288;2.794;2022-08-19T06:52:57;1.75;;;0.60;;
65092;SDS011;52025;50.288;2.794;2022-08-19T06:55:22;0.65;;;0.50;;
65092;SDS011;52025;50.288;2.794;2022-08-19T06:57:47;0.70;;;0.50;;
65092;SDS011;52025;50.288;2.794;2022-08-19T07:00:12;0.57;;;0.40;;
65092;SDS011;52025;50.288;2.794;2022-08-19T07:02:42;0.50;;;0.43;;
65092;SDS011;52025;50.288;2.794;2022-08-19T07:05:08;1.13;;;0.60;;
65092;SDS011;52025;50.288;2.794;2022-08-19T07:07:33;1.50;;;0.55;;
65092;SDS011;52025;50.288;2.794;2022-08-19T07:09:59;1.20;;;0.45;;
65092;SDS011;52025;50.288;2.794;2022-08-19T07:12:24;0.90;;;0.68;;
65092;SDS011;52025;50.288;2.794;2022-08-19T07:14:51;0.43;;;0.43;;
65092;SDS011;52025;50.288;2.794;2022-08-19T07:17:17;1.55;;;0.50;;
65092;SDS011;52025;50.288;2.794;2022-08-19T07:19:43;0.73;;;0.40;;
65092;SDS011;52025;50.288;2.794;2022-08-19T07:22:09;0.82;;;0.50;;
65092;SDS011;52025;50.288;2.794;2022-08-19T07:24:37;0.52;;;0.50;;
65092;SDS011;52025;50.288;2.794;2022-08-19T07:27:03;0.43;;;0.43;;
65092;SDS011;52025;50.288;2.794;2022-08-19T07:29:29;1.10;;;0.73;;
65092;SDS011;52025;50.288;2.794;2022-08-19T07:31:56;1.73;;;0.70;;
65092;SDS011;52025;50.288;2.794;2022-08-19T07:34:23;0.57;;;0.47;;
65092;SDS011;52025;50.288;2.794;2022-08-19T07:36:50;0.73;;;0.55;;
65092;SDS011;52025;50.288;2.794;2022-08-19T07:39:20;0.82;;;0.60;;
65092;SDS011;52025;50.288;2.794;2022-08-19T07:41:46;0.47;;;0.43;;
65092;SDS011;52025;50.288;2.794;2022-08-19T07:44:12;0.50;;;0.50;;
65092;SDS011;52025;50.288;2.794;2022-08-19T07:46:39;0.43;;;0.43;;
65092;SDS011;52025;50.288;2.794;2022-08-19T07:49:05;0.47;;;0.30;;
65092;SDS011;52025;50.288;2.794;2022-08-19T07:51:30;0.35;;;0.30;;
65092;SDS011;52025;50.288;2.794;2022-08-19T07:53:56;0.25;;;0.20;;
65092;SDS011;52025;50.288;2.794;2022-08-19T07:56:21;0.30;;;0.20;;
65092;SDS011;52025;50.288;2.794;2022-08-19T07:58:48;0.30;;;0.30;;
65092;SDS011;52025;50.288;2.794;2022-08-19T08:01:18;0.30;;;0.30;;
65092;SDS011;52025;50.288;2.794;2022-08-19T08:03:44;0.20;;;0.20;;
65092;SDS011;52025;50.288;2.794;2022-08-19T08:06:29;0.30;;;0.30;;
65092;SDS011;52025;50.288;2.794;2022-08-19T08:09:14;0.35;;;0.30;;
65092;SDS011;52025;50.288;2.794;2022-08-19T08:14:26;0.15;;;0.15;;
65092;SDS011;52025;50.288;2.794;2022-08-19T08:16:51;0.73;;;0.15;;
65092;SDS011;52025;50.288;2.794;2022-08-19T08:19:18;0.10;;;0.10;;
65092;SDS011;52025;50.288;2.794;2022-08-19T08:21:44;0.10;;;0.10;;
65092;SDS011;52025;50.288;2.794;2022-08-19T08:24:09;0.20;;;0.15;;
65092;SDS011;52025;50.288;2.794;2022-08-19T08:26:35;0.10;;;0.10;;
65092;SDS011;52025;50.288;2.794;2022-08-19T08:29:00;0.77;;;0.25;;
65092;SDS011;52025;50.288;2.794;2022-08-19T08:31:26;0.52;;;0.25;;
65092;SDS011;52025;50.288;2.794;2022-08-19T08:33:51;0.70;;;0.47;;
65092;SDS011;52025;50.288;2.794;2022-08-19T08:36:17;1.90;;;0.57;;
65092;SDS011;52025;50.288;2.794;2022-08-19T08:38:43;0.40;;;0.40;;
65092;SDS011;52025;50.288;2.794;2022-08-19T08:43:44;0.95;;;0.40;;
65092;SDS011;52025;50.288;2.794;2022-08-19T08:46:12;0.57;;;0.40;;
65092;SDS011;52025;50.288;2.794;2022-08-19T08:51:42;2.25;;;0.70;;
65092;SDS011;52025;50.288;2.794;2022-08-19T08:54:11;1.67;;;0.40;;
65092;SDS011;52025;50.288;2.794;2022-08-19T08:56:40;0.50;;;0.35;;
65092;SDS011;52025;50.288;2.794;2022-08-19T08:59:16;0.52;;;0.40;;
65092;SDS011;52025;50.288;2.794;2022-08-19T09:01:42;1.20;;;0.47;;
65092;SDS011;52025;50.288;2.794;2022-08-19T09:04:08;0.80;;;0.40;;
65092;SDS011;52025;50.288;2.794;2022-08-19T09:17:33;0.88;;;0.40;;
65092;SDS011;52025;50.288;2.794;2022-08-19T09:22:33;0.45;;;0.20;;
65092;SDS011;52025;50.288;2.794;2022-08-19T09:24:59;0.52;;;0.35;;
65092;SDS011;52025;50.288;2.794;2022-08-19T09:27:25;0.20;;;0.20;;
65092;SDS011;52025;50.288;2.794;2022-08-19T09:29:51;0.43;;;0.40;;
65092;SDS011;52025;50.288;2.794;2022-08-19T09:32:16;0.38;;;0.22;;
65092;SDS011;52025;50.288;2.794;2022-08-19T09:34:43;0.65;;;0.40;;
65092;SDS011;52025;50.288;2.794;2022-08-19T09:37:08;0.30;;;0.30;;
65092;SDS011;52025;50.288;2.794;2022-08-19T09:39:33;0.30;;;0.30;;
65092;SDS011;52025;50.288;2.794;2022-08-19T09:41:58;0.30;;;0.20;;
65092;SDS011;52025;50.288;2.794;2022-08-19T09:44:24;0.20;;;0.20;;
65092;SDS011;52025;50.288;2.794;2022-08-19T09:46:49;0.40;;;0.30;;
65092;SDS011;52025;50.288;2.794;2022-08-19T09:49:16;1.30;;;0.60;;
65092;SDS011;52025;50.288;2.794;2022-08-19T09:51:42;1.13;;;0.40;;
65092;SDS011;52025;50.288;2.794;2022-08-19T09:54:07;0.20;;;0.20;;
65092;SDS011;52025;50.288;2.794;2022-08-19T09:56:33;0.57;;;0.40;;
65092;SDS011;52025;50.288;2.794;2022-08-19T09:58:58;0.40;;;0.35;;
65092;SDS011;52025;50.288;2.794;2022-08-19T10:01:25;0.20;;;0.20;;
65092;SDS011;52025;50.288;2.794;2022-08-19T10:03:51;0.45;;;0.20;;
65092;SDS011;52025;50.288;2.794;2022-08-19T10:06:18;0.77;;;0.43;;
65092;SDS011;52025;50.288;2.794;2022-08-19T10:08:44;0.38;;;0.20;;
65092;SDS011;52025;50.288;2.794;2022-08-19T10:11:10;0.32;;;0.30;;
65092;SDS011;52025;50.288;2.794;2022-08-19T10:13:36;0.52;;;0.32;;
65092;SDS011;52025;50.288;2.794;2022-08-19T10:16:04;1.25;;;0.30;;
65092;SDS011;52025;50.288;2.794;2022-08-19T10:18:30;0.20;;;0.20;;
65092;SDS011;52025;50.288;2.794;2022-08-19T10:21:09;0.50;;;0.30;;
65092;SDS011;52025;50.288;2.794;2022-08-19T10:23:35;0.38;;;0.32;;
65092;SDS011;52025;50.288;2.794;2022-08-19T10:26:02;0.65;;;0.30;;
65092;SDS011;52025;50.288;2.794;2022-08-19T10:28:28;0.30;;;0.30;;
65092;SDS011;52025;50.288;2.794;2022-08-19T10:30:53;0.30;;;0.30;;
65092;SDS011;52025;50.288;2.794;2022-08-19T10:33:19;0.20;;;0.20;;
65092;SDS011;52025;50.288;2.794;2022-08-19T10:35:44;0.28;;;0.20;;
65092;SDS011;52025;50.288;2.794;2022-08-19T10:38:11;0.20;;;0.20;;
65092;SDS011;52025;50.288;2.794;2022-08-19T10:40:36;0.22;;;0.22;;
65092;SDS011;52025;50.288;2.794;2022-08-19T10:43:02;0.20;;;0.20;;
65092;SDS011;52025;50.288;2.794;2022-08-19T12:15:15;0.57;;;0.30;;
65092;SDS011;52025;50.288;2.794;2022-08-19T12:17:41;0.63;;;0.40;;
65092;SDS011;52025;50.288;2.794;2022-08-19T12:20:07;0.68;;;0.40;;
65092;SDS011;52025;50.288;2.794;2022-08-19T12:22:33;0.20;;;0.20;;
65092;SDS011;52025;50.288;2.794;2022-08-19T12:24:59;1.15;;;0.60;;
65092;SDS011;52025;50.288;2.794;2022-08-19T12:27:25;0.40;;;0.30;;
65092;SDS011;52025;50.288;2.794;2022-08-19T12:29:51;0.30;;;0.30;;
65092;SDS011;52025;50.288;2.794;2022-08-19T12:32:16;0.30;;;0.30;;
65092;SDS011;52025;50.288;2.794;2022-08-19T12:34:41;0.20;;;0.20;;
65092;SDS011;52025;50.288;2.794;2022-08-19T12:37:07;0.32;;;0.28;;
65092;SDS011;52025;50.288;2.794;2022-08-19T12:39:36;0.20;;;0.20;;
65092;SDS011;52025;50.288;2.794;2022-08-19T12:42:02;0.63;;;0.20;;
65092;SDS011;52025;50.288;2.794;2022-08-19T12:44:27;0.20;;;0.20;;
65092;SDS011;52025;50.288;2.794;2022-08-19T12:46:54;0.20;;;0.20;;
65092;SDS011;52025;50.288;2.794;2022-08-19T12:49:19;0.20;;;0.20;;
65092;SDS011;52025;50.288;2.794;2022-08-19T12:51:44;0.47;;;0.35;;
65092;SDS011;52025;50.288;2.794;2022-08-19T12:54:09;0.82;;;0.30;;
65092;SDS011;52025;50.288;2.794;2022-08-19T12:56:35;0.40;;;0.20;;
65092;SDS011;52025;50.288;2.794;2022-08-19T12:59:01;0.30;;;0.30;;
65092;SDS011;52025;50.288;2.794;2022-08-19T13:01:27;0.17;;;0.17;;
65092;SDS011;52025;50.288;2.794;2022-08-19T13:03:55;0.30;;;0.30;;
65092;SDS011;52025;50.288;2.794;2022-08-19T13:06:20;0.20;;;0.20;;
65092;SDS011;52025;50.288;2.794;2022-08-19T13:08:46;0.25;;;0.25;;
65092;SDS011;52025;50.288;2.794;2022-08-19T13:11:12;1.30;;;0.50;;
65092;SDS011;52025;50.288;2.794;2022-08-19T13:13:39;0.73;;;0.32;;
65092;SDS011;52025;50.288;2.794;2022-08-19T13:16:06;0.65;;;0.50;;
65092;SDS011;52025;50.288;2.794;2022-08-19T13:18:32;0.32;;;0.30;;
65092;SDS011;52025;50.288;2.794;2022-08-19T13:20:57;0.55;;;0.30;;
65092;SDS011;52025;50.288;2.794;2022-08-19T13:23:28;0.45;;;0.30;;
65092;SDS011;52025;50.288;2.794;2022-08-19T13:25:57;0.20;;;0.20;;
65092;SDS011;52025;50.288;2.794;2022-08-19T13:28:23;0.30;;;0.30;;
65092;SDS011;52025;50.288;2.794;2022-08-19T13:30:48;0.52;;;0.20;;
65092;SDS011;52025;50.288;2.794;2022-08-19T13:35:59;0.80;;;0.30;;
65092;SDS011;52025;50.288;2.794;2022-08-19T13:38:25;1.52;;;0.40;;
65092;SDS011;52025;50.288;2.794;2022-08-19T13:40:52;0.30;;;0.30;;
65092;SDS011;52025;50.288;2.794;2022-08-19T13:43:18;0.93;;;0.40;;
65092;SDS011;52025;50.288;2.794;2022-08-19T13:45:44;1.50;;;0.73;;
65092;SDS011;52025;50.288;2.794;2022-08-19T13:48:10;0.20;;;0.20;;
65092;SDS011;52025;50.288;2.794;2022-08-19T13:50:40;0.60;;;0.30;;
65092;SDS011;52025;50.288;2.794;2022-08-19T13:53:07;0.30;;;0.30;;
65092;SDS011;52025;50.288;2.794;2022-08-19T13:55:32;1.30;;;0.50;;
65092;SDS011;52025;50.288;2.794;2022-08-19T13:57:58;0.30;;;0.30;;
65092;SDS011;52025;50.288;2.794;2022-08-19T14:00:28;0.60;;;0.40;;
65092;SDS011;52025;50.288;2.794;2022-08-19T14:02:59;0.57;;;0.50;;
65092;SDS011;52025;50.288;2.794;2022-08-19T14:05:25;0.55;;;0.40;;
65092;SDS011;52025;50.288;2.794;2022-08-19T14:07:50;0.47;;;0.40;;
65092;SDS011;52025;50.288;2.794;2022-08-19T14:10:16;1.20;;;0.40;;
65092;SDS011;52025;50.288;2.794;2022-08-19T14:12:41;0.65;;;0.30;;
65092;SDS011;52025;50.288;2.794;2022-08-19T14:15:07;0.60;;;0.38;;
65092;SDS011;52025;50.288;2.794;2022-08-19T14:17:33;0.30;;;0.30;;
65092;SDS011;52025;50.288;2.794;2022-08-19T14:20:00;0.90;;;0.30;;
65092;SDS011;52025;50.288;2.794;2022-08-19T14:22:32;0.50;;;0.20;;
65092;SDS011;52025;50.288;2.794;2022-08-19T14:24:57;0.95;;;0.30;;
65092;SDS011;52025;50.288;2.794;2022-08-19T14:27:23;0.45;;;0.30;;
65092;SDS011;52025;50.288;2.794;2022-08-19T14:29:50;0.60;;;0.30;;
65092;SDS011;52025;50.288;2.794;2022-08-19T14:32:15;0.88;;;0.50;;
65092;SDS011;52025;50.288;2.794;2022-08-19T14:34:40;0.68;;;0.43;;
65092;SDS011;52025;50.288;2.794;2022-08-19T14:37:06;0.20;;;0.20;;
65092;SDS011;52025;50.288;2.794;2022-08-19T15:38:37;0.40;;;0.20;;
65092;SDS011;52025;50.288;2.794;2022-08-19T15:49:05;0.43;;;0.20;;
65092;SDS011;52025;50.288;2.794;2022-08-19T15:54:38;0.40;;;0.28;;
65092;SDS011;52025;50.288;2.794;2022-08-19T16:00:05;0.32;;;0.30;;
65092;SDS011;52025;50.288;2.794;2022-08-19T16:18:45;0.40;;;0.22;;
65092;SDS011;52025;50.288;2.794;2022-08-19T16:21:11;0.73;;;0.22;;
65092;SDS011;52025;50.288;2.794;2022-08-19T16:42:23;0.65;;;0.30;;
65092;SDS011;52025;50.288;2.794;2022-08-19T16:47:23;0.20;;;0.20;;
65092;SDS011;52025;50.288;2.794;2022-08-19T16:49:48;0.10;;;0.10;;
65092;SDS011;52025;50.288;2.794;2022-08-19T16:54:49;0.22;;;0.22;;
65092;SDS011;52025;50.288;2.794;2022-08-19T16:57:14;0.20;;;0.20;;
65092;SDS011;52025;50.288;2.794;2022-08-19T16:59:40;0.20;;;0.20;;
65092;SDS011;52025;50.288;2.794;2022-08-19T17:04:40;0.38;;;0.38;;
65092;SDS011;52025;50.288;2.794;2022-08-19T19:24:00;0.22;;;0.22;;
65092;SDS011;52025;50.288;2.794;2022-08-19T19:29:26;0.88;;;0.57;;
65092;SDS011;52025;50.288;2.794;2022-08-19T21:56:42;1.50;;;0.63;;
